sensor_id;sensor_type;location;lat;lon;timestamp;temperature;humidity
25112;DHT22;13092;51.996;4.458;2023-08-20T00:00:10;20.70;99.90
25112;DHT22;13092;51.996;4.458;2023-08-20T00:02:41;20.80;99.90
25112;DHT22;13092;51.996;4.458;2023-08-20T00:05:11;20.70;99.90
25112;DHT22;13092;51.996;4.458;2023-08-20T00:07:40;20.70;99.90
25112;DHT22;13092;51.996;4.458;2023-08-20T00:10:09;20.70;99.90
25112;DHT22;13092;51.996;4.458;2023-08-20T00:12:37;20.70;99.90
25112;DHT22;13092;51.996;4.458;2023-08-20T00:15:08;20.80;99.90
25112;DHT22;13092;51.996;4.458;2023-08-20T00:17:39;20.70;99.90
25112;DHT22;13092;51.996;4.458;2023-08-20T00:20:09;20.80;99.90
25112;DHT22;13092;51.996;4.458;2023-08-20T00:22:40;20.70;99.90
25112;DHT22;13092;51.996;4.458;2023-08-20T00:25:13;20.80;99.90
25112;DHT22;13092;51.996;4.458;2023-08-20T00:27:42;20.80;99.90
25112;DHT22;13092;51.996;4.458;2023-08-20T00:30:12;20.80;99.90
25112;DHT22;13092;51.996;4.458;2023-08-20T00:32:43;20.70;99.90
25112;DHT22;13092;51.996;4.458;2023-08-20T00:35:11;20.70;99.90
25112;DHT22;13092;51.996;4.458;2023-08-20T00:37:39;20.70;99.90
25112;DHT22;13092;51.996;4.458;2023-08-20T00:40:09;20.70;99.90
25112;DHT22;13092;51.996;4.458;2023-08-20T00:42:37;20.70;99.90
25112;DHT22;13092;51.996;4.458;2023-08-20T00:45:06;20.70;99.90
25112;DHT22;13092;51.996;4.458;2023-08-20T00:47:36;20.70;99.90
25112;DHT22;13092;51.996;4.458;2023-08-20T00:50:08;20.70;99.90
25112;DHT22;13092;51.996;4.458;2023-08-20T00:52:37;20.70;99.90
25112;DHT22;13092;51.996;4.458;2023-08-20T00:55:08;20.80;99.90
25112;DHT22;13092;51.996;4.458;2023-08-20T00:57:37;20.70;99.90
25112;DHT22;13092;51.996;4.458;2023-08-20T01:00:07;20.70;99.90
25112;DHT22;13092;51.996;4.458;2023-08-20T01:02:39;20.80;99.90
25112;DHT22;13092;51.996;4.458;2023-08-20T01:05:11;20.70;99.90
25112;DHT22;13092;51.996;4.458;2023-08-20T01:07:53;20.60;99.90
25112;DHT22;13092;51.996;4.458;2023-08-20T01:10:30;20.60;99.90
25112;DHT22;13092;51.996;4.458;2023-08-20T01:13:02;20.50;99.90
25112;DHT22;13092;51.996;4.458;2023-08-20T01:15:31;20.50;99.90
25112;DHT22;13092;51.996;4.458;2023-08-20T01:18:01;20.50;99.90
25112;DHT22;13092;51.996;4.458;2023-08-20T01:20:33;20.60;99.90
25112;DHT22;13092;51.996;4.458;2023-08-20T01:26:21;20.60;99.90
25112;DHT22;13092;51.996;4.458;2023-08-20T01:28:55;20.60;99.90
25112;DHT22;13092;51.996;4.458;2023-08-20T01:31:25;20.60;99.90
25112;DHT22;13092;51.996;4.458;2023-08-20T01:33:53;20.60;99.90
25112;DHT22;13092;51.996;4.458;2023-08-20T01:36:24;20.60;99.90
25112;DHT22;13092;51.996;4.458;2023-08-20T01:38:53;20.50;99.90
25112;DHT22;13092;51.996;4.458;2023-08-20T01:41:21;20.50;99.90
25112;DHT22;13092;51.996;4.458;2023-08-20T01:43:49;20.50;99.90
25112;DHT22;13092;51.996;4.458;2023-08-20T01:46:19;20.40;99.90
25112;DHT22;13092;51.996;4.458;2023-08-20T01:48:47;20.50;99.90
25112;DHT22;13092;51.996;4.458;2023-08-20T01:51:15;20.40;99.90
25112;DHT22;13092;51.996;4.458;2023-08-20T01:53:44;20.50;99.90
25112;DHT22;13092;51.996;4.458;2023-08-20T01:56:12;20.40;99.90
25112;DHT22;13092;51.996;4.458;2023-08-20T01:58:40;20.40;99.90
25112;DHT22;13092;51.996;4.458;2023-08-20T02:01:09;20.50;99.90
25112;DHT22;13092;51.996;4.458;2023-08-20T02:03:39;20.40;99.90
25112;DHT22;13092;51.996;4.458;2023-08-20T02:06:07;20.40;99.90
25112;DHT22;13092;51.996;4.458;2023-08-20T02:08:35;20.30;99.90
25112;DHT22;13092;51.996;4.458;2023-08-20T02:11:04;20.20;99.90
25112;DHT22;13092;51.996;4.458;2023-08-20T02:13:32;20.30;99.90
25112;DHT22;13092;51.996;4.458;2023-08-20T02:16:02;20.30;99.90
25112;DHT22;13092;51.996;4.458;2023-08-20T02:18:31;20.30;99.90
25112;DHT22;13092;51.996;4.458;2023-08-20T02:21:01;20.20;99.90
25112;DHT22;13092;51.996;4.458;2023-08-20T02:23:29;20.20;99.90
25112;DHT22;13092;51.996;4.458;2023-08-20T02:25:58;20.30;99.90
25112;DHT22;13092;51.996;4.458;2023-08-20T02:28:27;20.20;99.90
25112;DHT22;13092;51.996;4.458;2023-08-20T02:30:56;20.20;99.90
25112;DHT22;13092;51.996;4.458;2023-08-20T02:33:27;20.20;99.90
25112;DHT22;13092;51.996;4.458;2023-08-20T02:35:57;20.10;99.90
25112;DHT22;13092;51.996;4.458;2023-08-20T02:38:30;20.10;99.90
25112;DHT22;13092;51.996;4.458;2023-08-20T02:40:58;20.10;99.90
25112;DHT22;13092;51.996;4.458;2023-08-20T02:43:27;20.00;99.90
25112;DHT22;13092;51.996;4.458;2023-08-20T02:45:55;20.00;99.90
25112;DHT22;13092;51.996;4.458;2023-08-20T02:48:23;20.00;99.90
25112;DHT22;13092;51.996;4.458;2023-08-20T02:50:53;20.00;99.90
25112;DHT22;13092;51.996;4.458;2023-08-20T02:53:22;20.00;99.90
25112;DHT22;13092;51.996;4.458;2023-08-20T02:55:52;20.00;99.90
25112;DHT22;13092;51.996;4.458;2023-08-20T02:58:20;20.10;99.90
25112;DHT22;13092;51.996;4.458;2023-08-20T03:00:48;19.90;99.90
25112;DHT22;13092;51.996;4.458;2023-08-20T03:03:17;19.80;99.90
25112;DHT22;13092;51.996;4.458;2023-08-20T03:05:45;19.80;99.90
25112;DHT22;13092;51.996;4.458;2023-08-20T03:08:13;19.80;99.90
25112;DHT22;13092;51.996;4.458;2023-08-20T03:10:41;19.80;99.90
25112;DHT22;13092;51.996;4.458;2023-08-20T03:13:12;19.80;99.90
25112;DHT22;13092;51.996;4.458;2023-08-20T03:15:40;19.80;99.90
25112;DHT22;13092;51.996;4.458;2023-08-20T03:18:09;19.70;99.90
25112;DHT22;13092;51.996;4.458;2023-08-20T03:20:37;19.70;99.90
25112;DHT22;13092;51.996;4.458;2023-08-20T03:23:05;19.70;99.90
25112;DHT22;13092;51.996;4.458;2023-08-20T03:25:33;19.70;99.90
25112;DHT22;13092;51.996;4.458;2023-08-20T03:28:02;19.50;99.90
25112;DHT22;13092;51.996;4.458;2023-08-20T03:30:31;19.60;99.90
25112;DHT22;13092;51.996;4.458;2023-08-20T03:33:00;19.60;99.90
25112;DHT22;13092;51.996;4.458;2023-08-20T03:35:29;19.60;99.90
25112;DHT22;13092;51.996;4.458;2023-08-20T03:37:57;19.50;99.90
25112;DHT22;13092;51.996;4.458;2023-08-20T03:40:27;19.60;99.90
25112;DHT22;13092;51.996;4.458;2023-08-20T03:42:55;19.70;99.90
25112;DHT22;13092;51.996;4.458;2023-08-20T03:45:23;19.50;99.90
25112;DHT22;13092;51.996;4.458;2023-08-20T03:47:53;19.40;99.90
25112;DHT22;13092;51.996;4.458;2023-08-20T03:50:21;19.40;99.90
25112;DHT22;13092;51.996;4.458;2023-08-20T03:52:49;19.40;99.90
25112;DHT22;13092;51.996;4.458;2023-08-20T03:55:18;19.40;99.90
25112;DHT22;13092;51.996;4.458;2023-08-20T03:57:46;19.40;99.90
25112;DHT22;13092;51.996;4.458;2023-08-20T04:00:14;19.40;99.90
25112;DHT22;13092;51.996;4.458;2023-08-20T04:02:43;19.30;99.90
25112;DHT22;13092;51.996;4.458;2023-08-20T04:05:12;19.20;99.90
25112;DHT22;13092;51.996;4.458;2023-08-20T04:07:41;19.10;99.90
25112;DHT22;13092;51.996;4.458;2023-08-20T04:10:09;19.10;99.90
25112;DHT22;13092;51.996;4.458;2023-08-20T04:12:37;19.00;99.90
25112;DHT22;13092;51.996;4.458;2023-08-20T04:15:06;18.90;99.90
25112;DHT22;13092;51.996;4.458;2023-08-20T04:17:34;18.90;99.90
25112;DHT22;13092;51.996;4.458;2023-08-20T04:20:07;18.90;99.90
25112;DHT22;13092;51.996;4.458;2023-08-20T04:22:38;18.90;99.90
25112;DHT22;13092;51.996;4.458;2023-08-20T04:25:07;18.90;99.90
25112;DHT22;13092;51.996;4.458;2023-08-20T04:27:36;18.90;99.90
25112;DHT22;13092;51.996;4.458;2023-08-20T04:30:06;18.90;99.90
25112;DHT22;13092;51.996;4.458;2023-08-20T04:32:34;18.90;99.90
25112;DHT22;13092;51.996;4.458;2023-08-20T04:35:03;18.90;99.90
25112;DHT22;13092;51.996;4.458;2023-08-20T04:37:31;18.90;99.90
25112;DHT22;13092;51.996;4.458;2023-08-20T04:40:02;18.90;99.90
25112;DHT22;13092;51.996;4.458;2023-08-20T04:42:32;18.90;99.90
25112;DHT22;13092;51.996;4.458;2023-08-20T04:45:00;18.90;99.90
25112;DHT22;13092;51.996;4.458;2023-08-20T04:47:28;18.90;99.90
25112;DHT22;13092;51.996;4.458;2023-08-20T04:49:57;18.80;99.90
25112;DHT22;13092;51.996;4.458;2023-08-20T04:52:25;18.90;99.90
25112;DHT22;13092;51.996;4.458;2023-08-20T04:54:53;18.90;99.90
25112;DHT22;13092;51.996;4.458;2023-08-20T04:57:23;18.90;99.90
25112;DHT22;13092;51.996;4.458;2023-08-20T04:59:52;18.90;99.90
25112;DHT22;13092;51.996;4.458;2023-08-20T05:02:20;18.90;99.90
25112;DHT22;13092;51.996;4.458;2023-08-20T05:04:49;18.90;99.90
25112;DHT22;13092;51.996;4.458;2023-08-20T05:07:17;18.90;99.90
25112;DHT22;13092;51.996;4.458;2023-08-20T05:09:47;18.90;99.90
25112;DHT22;13092;51.996;4.458;2023-08-20T05:12:15;18.90;99.90
25112;DHT22;13092;51.996;4.458;2023-08-20T05:14:46;18.90;99.90
25112;DHT22;13092;51.996;4.458;2023-08-20T05:17:14;18.90;99.90
25112;DHT22;13092;51.996;4.458;2023-08-20T05:19:42;18.90;99.90
25112;DHT22;13092;51.996;4.458;2023-08-20T05:22:11;18.90;99.90
25112;DHT22;13092;51.996;4.458;2023-08-20T05:24:41;18.90;99.90
25112;DHT22;13092;51.996;4.458;2023-08-20T05:27:15;19.00;99.90
25112;DHT22;13092;51.996;4.458;2023-08-20T05:29:45;19.00;99.90
25112;DHT22;13092;51.996;4.458;2023-08-20T05:32:13;19.00;99.90
25112;DHT22;13092;51.996;4.458;2023-08-20T05:34:43;19.00;99.90
25112;DHT22;13092;51.996;4.458;2023-08-20T05:37:11;19.00;99.90
25112;DHT22;13092;51.996;4.458;2023-08-20T05:39:42;19.10;99.90
25112;DHT22;13092;51.996;4.458;2023-08-20T05:42:11;19.20;99.90
25112;DHT22;13092;51.996;4.458;2023-08-20T05:44:39;19.20;99.90
25112;DHT22;13092;51.996;4.458;2023-08-20T05:47:08;19.30;99.90
25112;DHT22;13092;51.996;4.458;2023-08-20T05:49:37;19.40;99.90
25112;DHT22;13092;51.996;4.458;2023-08-20T05:52:05;19.40;99.90
25112;DHT22;13092;51.996;4.458;2023-08-20T05:54:35;19.50;99.90
25112;DHT22;13092;51.996;4.458;2023-08-20T05:57:05;19.50;99.90
25112;DHT22;13092;51.996;4.458;2023-08-20T05:59:45;19.60;99.90
25112;DHT22;13092;51.996;4.458;2023-08-20T06:20:03;19.90;99.90
25112;DHT22;13092;51.996;4.458;2023-08-20T07:08:30;20.50;99.90
25112;DHT22;13092;51.996;4.458;2023-08-20T07:19:14;20.60;99.90
25112;DHT22;13092;51.996;4.458;2023-08-20T07:34:13;20.80;99.90
25112;DHT22;13092;51.996;4.458;2023-08-20T08:26:22;21.40;99.90
25112;DHT22;13092;51.996;4.458;2023-08-20T10:08:50;24.60;99.90
25112;DHT22;13092;51.996;4.458;2023-08-20T10:19:29;25.00;99.90
25112;DHT22;13092;51.996;4.458;2023-08-20T13:37:42;27.20;99.90
25112;DHT22;13092;51.996;4.458;2023-08-20T13:48:25;27.20;99.90
25112;DHT22;13092;51.996;4.458;2023-08-20T15:45:32;26.70;99.90
25112;DHT22;13092;51.996;4.458;2023-08-20T15:57:34;27.00;99.90
25112;DHT22;13092;51.996;4.458;2023-08-20T16:37:19;28.30;99.90
25112;DHT22;13092;51.996;4.458;2023-08-20T21:08:03;22.50;99.90
25112;DHT22;13092;51.996;4.458;2023-08-20T21:15:15;22.30;99.90
25112;DHT22;13092;51.996;4.458;2023-08-20T21:26:16;22.50;99.90
25112;DHT22;13092;51.996;4.458;2023-08-20T21:29:49;22.50;99.90
25112;DHT22;13092;51.996;4.458;2023-08-20T21:33:16;22.50;99.90
25112;DHT22;13092;51.996;4.458;2023-08-20T21:36:56;22.40;99.90
